Time;durP1;ratioP1;P1;durP2;ratioP2;P2;SDS_P1;SDS_P2;PMS_P1;PMS_P2;Temp;Humidity;BMP_temperature;BMP_pressure;BME280_temperature;BME280_humidity;BME280_pressure;Samples;Min_cycle;Max_cycle;Signal;HPM_P1;HPM_P2
2022/06/20 00:01:09;;;;;;;4.23;0.93;;;;;;;14.55;100.00;101385.91;5042249;28;20479;-84
2022/06/20 00:03:41;;;;;;;2.43;1.13;;;;;;;13.59;100.00;101232.72;5041406;28;20754;-83
2022/06/20 00:06:12;;;;;;;1.57;0.90;;;;;;;13.82;100.00;101259.25;5041993;28;20551;-86
2022/06/20 00:08:37;;;;;;;2.87;1.17;;;;;;;14.41;100.00;101348.16;5040936;28;20908;-86
2022/06/20 00:11:03;;;;;;;4.20;1.10;;;;;;;14.87;100.00;101414.72;5037276;28;20533;-85
2022/06/20 00:13:32;;;;;;;5.07;1.13;;;;;;;14.90;100.00;101394.56;5038631;28;20210;-85
2022/06/20 00:16:00;;;;;;;3.73;1.30;;;;;;;14.69;100.00;101377.59;5040187;28;20195;-87
2022/06/20 00:18:26;;;;;;;1.53;0.93;;;;;;;13.87;100.00;101295.34;5042347;28;20448;-87
2022/06/20 00:20:52;;;;;;;4.63;0.93;;;;;;;13.69;100.00;101244.75;5039441;28;21075;-86
2022/06/20 00:23:17;;;;;;;1.93;0.80;;;;;;;14.22;100.00;101322.84;5043294;28;20556;-86
2022/06/20 00:25:43;;;;;;;1.70;0.80;;;;;;;14.42;100.00;101362.47;5041616;28;20592;-87
2022/06/20 00:28:09;;;;;;;2.10;0.97;;;;;;;14.44;100.00;101371.19;5037472;28;20222;-87
2022/06/20 00:30:36;;;;;;;3.33;1.23;;;;;;;14.84;100.00;101430.50;5039938;28;20258;-87
2022/06/20 00:33:02;;;;;;;2.57;1.07;;;;;;;14.64;100.00;101385.50;5040233;28;20465;-87
2022/06/20 00:35:28;;;;;;;2.50;1.00;;;;;;;14.82;100.00;101398.31;5040940;28;20481;-87
2022/06/20 00:37:57;;;;;;;3.00;1.07;;;;;;;14.88;100.00;101404.72;5038005;28;20864;-87
2022/06/20 00:40:34;;;;;;;4.53;1.63;;;;;;;14.87;100.00;101389.56;5044770;28;20211;-87
2022/06/20 00:43:00;;;;;;;2.67;1.20;;;;;;;14.01;100.00;101282.66;5041429;28;20429;-88
2022/06/20 00:45:30;;;;;;;6.03;1.10;;;;;;;14.78;100.00;101402.50;5039668;28;20504;-86
2022/06/20 00:48:03;;;;;;;3.27;1.50;;;;;;;13.82;100.00;101272.72;5040514;28;20506;-86
2022/06/20 00:50:32;;;;;;;2.80;1.03;;;;;;;13.68;100.00;101234.16;5041995;28;21167;-86
2022/06/20 00:53:15;;;;;;;3.07;1.27;;;;;;;14.75;100.00;101420.97;5037461;28;22206;-87
2022/06/20 00:56:19;;;;;;;1.87;0.70;;;;;;;14.76;100.00;101420.75;5043138;28;20516;-87
2022/06/20 00:59:07;;;;;;;3.33;1.07;;;;;;;14.45;100.00;101357.47;5060406;28;20438;-88
2022/06/20 01:01:37;;;;;;;1.37;1.00;;;;;;;14.39;100.00;101352.09;5061618;28;20448;-87
2022/06/20 01:04:26;;;;;;;1.90;0.90;;;;;;;14.69;100.00;101391.09;5047399;28;20467;-88
2022/06/20 01:06:55;;;;;;;2.83;0.90;;;;;;;14.42;100.00;101355.19;5039942;28;20504;-87
2022/06/20 01:09:25;;;;;;;4.00;1.03;;;;;;;13.71;100.00;101240.00;5045628;28;20441;-89
2022/06/20 01:11:56;;;;;;;4.20;0.80;;;;;;;13.62;100.00;101267.34;5042667;28;20460;-87
2022/06/20 01:14:47;;;;;;;2.90;1.30;;;;;;;14.08;100.00;101299.66;5037829;28;20992;-89
2022/06/20 01:17:31;;;;;;;3.47;1.20;;;;;;;14.71;100.00;101425.97;5041996;28;20457;-88
2022/06/20 01:20:20;;;;;;;2.10;0.90;;;;;;;14.22;100.00;101352.53;5041258;28;20477;-88
2022/06/20 01:23:12;;;;;;;3.20;0.97;;;;;;;14.16;100.00;101345.28;5043294;28;20434;-88
2022/06/20 01:26:02;;;;;;;1.20;0.90;;;;;;;14.56;100.00;101423.50;5042966;28;20472;-90
2022/06/20 01:28:33;;;;;;;1.60;0.90;;;;;;;14.52;100.00;101410.63;5037296;28;20781;-87
2022/06/20 01:30:59;;;;;;;2.40;1.10;;;;;;;13.97;100.00;101335.34;5043976;28;20430;-89
2022/06/20 01:33:25;;;;;;;2.37;0.93;;;;;;;14.39;100.00;101427.66;5043310;28;20465;-89
2022/06/20 01:38:38;;;;;;;2.10;0.83;;;;;;;13.46;100.00;101276.69;5048181;28;20433;-87
2022/06/20 01:43:48;;;;;;;3.10;1.53;;;;;;;13.69;100.00;101347.19;5042499;28;20472;-89
2022/06/20 01:46:14;;;;;;;1.57;0.80;;;;;;;14.28;100.00;101428.28;5043438;28;20464;-88
2022/06/20 01:48:49;;;;;;;3.57;1.20;;;;;;;13.74;100.00;101317.75;5043756;28;20631;-87
2022/06/20 01:51:22;;;;;;;1.67;0.80;;;;;;;13.65;100.00;101304.66;5040720;28;20444;-89
2022/06/20 01:53:50;;;;;;;1.97;0.80;;;;;;;12.19;100.00;101120.34;5039904;28;21103;-87
2022/06/20 01:56:18;;;;;;;5.00;0.97;;;;;;;14.09;100.00;101411.06;5040428;28;20437;-87
2022/06/20 01:58:49;;;;;;;2.27;0.80;;;;;;;13.37;100.00;101286.84;5043248;28;21136;-87
2022/06/20 02:01:15;;;;;;;1.47;0.87;;;;;;;12.78;100.00;101231.00;5041573;28;20815;-87
2022/06/20 02:03:43;;;;;;;1.47;0.90;;;;;;;13.49;100.00;101344.47;5044679;28;20519;-87
2022/06/20 02:06:12;;;;;;;1.03;0.60;;;;;;;13.85;100.00;101399.88;5040521;28;20327;-87
2022/06/20 02:08:40;;;;;;;2.37;1.10;;;;;;;13.81;100.00;101360.88;5043347;28;20518;-87
2022/06/20 02:11:08;;;;;;;2.13;0.87;;;;;;;14.00;100.00;101383.47;5042421;28;20446;-88
2022/06/20 02:13:39;;;;;;;2.30;1.10;;;;;;;13.88;100.00;101391.34;5041671;28;20470;-89
2022/06/20 02:16:08;;;;;;;2.23;0.90;;;;;;;13.82;100.00;101400.28;5042241;28;20453;-88
2022/06/20 02:18:38;;;;;;;2.20;1.00;;;;;;;12.96;100.00;101265.41;5041461;28;20443;-88
2022/06/20 02:21:09;;;;;;;1.53;1.27;;;;;;;12.89;100.00;101277.00;5040224;28;20504;-88
2022/06/20 02:23:39;;;;;;;3.07;1.33;;;;;;;13.21;100.00;101316.84;5041415;28;20477;-88
2022/06/20 02:26:08;;;;;;;5.97;1.23;;;;;;;13.00;100.00;101294.41;5041120;28;20458;-88
2022/06/20 02:28:43;;;;;;;3.07;1.13;;;;;;;13.79;100.00;101406.91;5058190;28;20549;-88
2022/06/20 02:31:09;;;;;;;3.00;1.00;;;;;;;13.32;100.00;101370.97;5040368;28;20456;-88
2022/06/20 02:33:35;;;;;;;1.83;1.10;;;;;;;12.83;100.00;101293.97;5039862;28;20465;-87
2022/06/20 02:36:06;;;;;;;3.30;1.00;;;;;;;11.89;100.00;101149.41;5039785;28;20438;-88
2022/06/20 02:38:32;;;;;;;3.70;1.00;;;;;;;13.56;100.00;101393.00;5042991;28;20453;-88
2022/06/20 02:40:58;;;;;;;1.97;0.90;;;;;;;13.15;100.00;101317.66;5054190;28;20437;-88
2022/06/20 02:43:41;;;;;;;1.77;1.10;;;;;;;13.54;100.00;101360.03;5041194;28;20462;-87
2022/06/20 02:46:13;;;;;;;3.20;1.00;;;;;;;13.72;100.00;101395.31;5042605;28;20265;-87
2022/06/20 02:48:43;;;;;;;2.03;0.90;;;;;;;13.63;100.00;101423.50;5062378;28;20443;-88
2022/06/20 02:51:15;;;;;;;2.90;1.00;;;;;;;13.43;100.00;101385.72;5037157;28;21547;-86
2022/06/20 02:53:55;;;;;;;1.83;1.00;;;;;;;12.97;100.00;101356.75;5040193;28;20461;-88
2022/06/20 02:56:24;;;;;;;1.30;0.83;;;;;;;13.59;100.00;101438.41;5039906;28;20957;-85
2022/06/20 02:58:57;;;;;;;1.83;1.20;;;;;;;13.46;100.00;101441.09;5039688;28;20430;-86
2022/06/20 03:01:35;;;;;;;2.10;0.70;;;;;;;13.49;100.00;101444.19;5040764;28;20442;-87
2022/06/20 03:04:01;;;;;;;2.23;1.03;;;;;;;13.23;100.00;101379.44;5035405;28;20975;-86
2022/06/20 03:06:36;;;;;;;3.67;0.97;;;;;;;13.16;100.00;101363.22;5039957;28;20980;-87
2022/06/20 03:09:03;;;;;;;2.63;1.00;;;;;;;13.60;100.00;101440.09;5035523;28;20446;-86
2022/06/20 03:11:31;;;;;;;1.83;0.90;;;;;;;12.89;100.00;101376.59;5042876;28;20446;-86
2022/06/20 03:13:59;;;;;;;2.83;1.00;;;;;;;13.56;100.00;101426.16;5043850;28;20588;-85
2022/06/20 03:16:26;;;;;;;1.23;0.90;;;;;;;12.73;100.00;101284.59;5040884;28;20472;-87
2022/06/20 03:18:54;;;;;;;1.93;1.23;;;;;;;13.69;100.00;101419.16;5042171;28;20451;-87
2022/06/20 03:21:24;;;;;;;2.37;0.87;;;;;;;12.72;100.00;101247.97;5040936;28;20434;-86
2022/06/20 03:23:51;;;;;;;6.83;1.30;;;;;;;13.41;100.00;101403.13;5042801;28;20608;-86
2022/06/20 03:26:23;;;;;;;2.03;0.90;;;;;;;12.94;100.00;101272.88;5041182;28;20467;-86
2022/06/20 03:28:49;;;;;;;4.93;1.13;;;;;;;12.69;100.00;101276.09;5038673;28;20521;-86
2022/06/20 03:31:14;;;;;;;5.23;1.37;;;;;;;12.69;100.00;101281.50;5037953;28;20549;-87
2022/06/20 03:33:41;;;;;;;1.80;1.00;;;;;;;12.42;100.00;101227.59;5039408;28;20208;-87
2022/06/20 03:36:13;;;;;;;2.40;0.90;;;;;;;13.67;100.00;101413.94;5042889;28;20191;-87
2022/06/20 03:38:40;;;;;;;2.90;1.27;;;;;;;13.24;100.00;101306.47;5040461;28;21079;-87
2022/06/20 03:41:07;;;;;;;2.57;1.10;;;;;;;13.65;100.00;101440.28;5039740;28;20433;-86
2022/06/20 03:43:35;;;;;;;2.70;1.07;;;;;;;13.50;100.00;101407.28;5035262;28;20496;-88
2022/06/20 03:46:15;;;;;;;3.60;1.20;;;;;;;13.22;100.00;101329.25;5036687;28;21059;-86
2022/06/20 03:48:52;;;;;;;3.10;1.10;;;;;;;13.69;100.00;101419.97;5040684;28;20529;-87
2022/06/20 03:51:21;;;;;;;4.10;1.10;;;;;;;13.39;100.00;101389.84;5040251;28;20433;-88
2022/06/20 03:53:57;;;;;;;2.93;1.00;;;;;;;13.71;100.00;101423.31;5037505;28;20977;-87
2022/06/20 03:56:52;;;;;;;2.30;0.83;;;;;;;13.64;100.00;101435.94;5040989;28;20950;-88
2022/06/20 03:59:22;;;;;;;3.00;1.60;;;;;;;13.61;100.00;101370.81;5041082;28;20488;-87
2022/06/20 04:01:53;;;;;;;2.83;1.20;;;;;;;14.00;100.00;101426.63;5041317;28;20442;-88
2022/06/20 04:04:59;;;;;;;3.17;1.20;;;;;;;14.02;100.00;101406.50;5036855;28;20543;-88
2022/06/20 04:07:33;;;;;;;3.47;1.30;;;;;;;13.40;100.00;101331.41;5010347;28;20480;-87
2022/06/20 04:13:00;;;;;;;5.50;1.70;;;;;;;13.88;100.00;101406.72;5041522;28;20433;-86
2022/06/20 04:15:35;;;;;;;4.77;1.37;;;;;;;13.97;100.00;101413.56;5042080;28;20445;-87
2022/06/20 04:18:27;;;;;;;3.57;1.60;;;;;;;13.85;100.00;101362.13;5041939;28;20430;-87
2022/06/20 04:21:02;;;;;;;3.13;1.27;;;;;;;14.04;100.00;101409.00;5044717;28;20438;-85
2022/06/20 04:23:51;;;;;;;3.43;1.40;;;;;;;13.99;100.00;101400.69;5049556;28;20450;-87
2022/06/20 04:26:39;;;;;;;4.40;1.50;;;;;;;13.73;100.00;101382.66;5040568;28;20668;-86
2022/06/20 04:29:12;;;;;;;3.27;1.57;;;;;;;13.38;100.00;101301.16;5046214;28;20454;-85
2022/06/20 04:31:37;;;;;;;4.13;1.70;;;;;;;14.02;100.00;101401.09;5046580;28;20472;-85
2022/06/20 04:34:19;;;;;;;5.07;1.87;;;;;;;14.11;100.00;101401.72;5050213;28;20513;-87
2022/06/20 04:37:18;;;;;;;4.17;1.93;;;;;;;14.20;100.00;101414.00;5050792;28;20258;-86
2022/06/20 04:39:59;;;;;;;3.80;1.97;;;;;;;14.29;100.00;101397.56;5048887;28;20588;-88
2022/06/20 04:42:44;;;;;;;3.50;1.63;;;;;;;13.54;100.00;101279.19;5048065;28;20442;-88
2022/06/20 04:45:35;;;;;;;5.13;1.77;;;;;;;14.23;100.00;101381.19;5048938;28;20991;-87
2022/06/20 04:48:12;;;;;;;2.73;1.63;;;;;;;13.87;100.00;101329.56;5051218;28;20418;-88
2022/06/20 04:50:41;;;;;;;3.97;2.20;;;;;;;14.23;100.00;101362.31;5051196;28;20413;-88
2022/06/20 04:53:13;;;;;;;3.27;1.40;;;;;;;14.18;100.00;101351.31;5047938;28;20968;-87
2022/06/20 04:55:43;;;;;;;4.20;1.63;;;;;;;13.99;100.00;101315.22;5048633;28;20438;-88
2022/06/20 04:58:15;;;;;;;3.70;1.40;;;;;;;13.33;100.00;101229.84;5045089;28;20621;-88
2022/06/20 05:00:43;;;;;;;7.50;2.00;;;;;;;13.86;100.00;101239.75;5045978;28;20415;-89
2022/06/20 05:03:13;;;;;;;4.00;1.70;;;;;;;13.20;100.00;101202.88;5049837;28;20519;-87
2022/06/20 05:05:41;;;;;;;7.77;2.60;;;;;;;13.37;100.00;101199.81;5048931;28;20453;-88
2022/06/20 05:08:12;;;;;;;4.57;2.43;;;;;;;14.64;100.00;101369.28;5046835;28;20540;-88
2022/06/20 05:11:06;;;;;;;2.70;1.90;;;;;;;14.58;100.00;101374.69;5044022;28;20448;-89
2022/06/20 05:13:50;;;;;;;9.70;2.20;;;;;;;14.36;100.00;101357.91;5042302;28;20475;-89
2022/06/20 05:16:23;;;;;;;3.17;2.03;;;;;;;13.89;100.00;101266.31;5048256;28;20930;-90
2022/06/20 05:19:02;;;;;;;4.87;2.50;;;;;;;14.63;100.00;101364.91;5049461;28;20454;-90
2022/06/20 05:21:36;;;;;;;4.87;2.30;;;;;;;14.66;100.00;101348.28;5048715;28;20434;-90
2022/06/20 05:24:12;;;;;;;6.93;2.70;;;;;;;14.67;100.00;101355.38;5050299;28;20487;-89
2022/06/20 05:26:41;;;;;;;4.40;2.00;;;;;;;14.76;100.00;101369.47;5044841;28;20458;-89
2022/06/20 05:29:12;;;;;;;4.60;2.07;;;;;;;14.72;100.00;101372.78;5046977;28;20934;-85
2022/06/20 05:31:47;;;;;;;5.23;2.30;;;;;;;14.71;100.00;101373.84;5035695;28;20516;-84
2022/06/20 05:34:20;;;;;;;5.50;2.30;;;;;;;13.46;100.00;101117.72;5055083;28;20523;-86
2022/06/20 05:37:16;;;;;;;7.20;2.80;;;;;;;14.93;100.00;101340.09;5044652;28;20454;-84
2022/06/20 05:39:54;;;;;;;4.63;2.30;;;;;;;14.83;100.00;101324.34;5045560;28;20486;-86
2022/06/20 05:42:20;;;;;;;6.63;2.10;;;;;;;15.02;100.00;101365.00;5041702;28;20449;-85
2022/06/20 05:44:46;;;;;;;8.63;2.30;;;;;;;14.92;100.00;101350.06;5043397;28;20470;-86
2022/06/20 05:47:34;;;;;;;4.03;2.50;;;;;;;15.18;100.00;101364.47;5040302;28;20466;-86
2022/06/20 05:50:22;;;;;;;4.07;1.90;;;;;;;15.06;100.00;101342.72;5045229;28;20488;-86
2022/06/20 05:52:50;;;;;;;6.90;2.30;;;;;;;14.05;100.00;101192.19;5040220;28;20457;-83
2022/06/20 05:55:22;;;;;;;6.40;2.67;;;;;;;14.78;100.00;101302.56;5047637;28;20462;-86
2022/06/20 05:57:49;;;;;;;7.87;2.57;;;;;;;14.92;100.00;101314.13;5048190;28;20468;-84
2022/06/20 06:00:23;;;;;;;4.10;2.40;;;;;;;15.12;100.00;101376.97;5050046;28;20433;-85
2022/06/20 06:02:54;;;;;;;9.60;3.60;;;;;;;15.06;100.00;101352.69;5044088;28;20529;-84
2022/06/20 06:05:31;;;;;;;5.10;2.47;;;;;;;15.31;100.00;101394.13;5046566;28;20444;-87
2022/06/20 06:08:24;;;;;;;7.73;2.90;;;;;;;15.34;100.00;101391.00;5043488;28;20445;-85
2022/06/20 06:11:09;;;;;;;5.23;2.40;;;;;;;14.60;100.00;101288.94;5042555;28;20443;-85
2022/06/20 06:13:44;;;;;;;3.80;1.83;;;;;;;15.18;100.00;101380.69;5045228;28;20462;-85
2022/06/20 06:19:32;;;;;;;5.23;2.00;;;;;;;15.33;100.00;101388.50;5044172;28;20485;-87
2022/06/20 06:22:13;;;;;;;4.03;1.67;;;;;;;15.51;100.00;101388.63;5041872;28;20433;-86
2022/06/20 06:24:42;;;;;;;7.03;1.60;;;;;;;15.48;100.00;101382.81;5042433;28;20469;-82
2022/06/20 06:27:12;;;;;;;3.73;1.80;;;;;;;15.18;100.00;101344.72;5045744;28;20472;-85
2022/06/20 06:29:49;;;;;;;5.03;1.90;;;;;;;15.37;100.00;101368.13;5045302;28;20464;-85
2022/06/20 06:32:21;;;;;;;3.83;1.73;;;;;;;15.69;100.00;101392.47;5044629;28;20445;-86
2022/06/20 06:34:51;;;;;;;4.80;1.93;;;;;;;15.60;100.00;101406.22;5042469;28;20470;-84
2022/06/20 06:37:27;;;;;;;5.20;1.87;;;;;;;15.56;100.00;101423.94;5042918;28;20442;-86
2022/06/20 06:39:59;;;;;;;6.30;1.80;;;;;;;15.50;100.00;101407.75;5040130;28;21117;-86
2022/06/20 06:42:24;;;;;;;3.33;1.90;;;;;;;14.57;100.00;101263.19;5043720;28;20434;-80
2022/06/20 06:44:51;;;;;;;5.90;2.27;;;;;;;15.30;100.00;101375.41;5042106;28;20549;-83
2022/06/20 06:47:41;;;;;;;3.53;1.67;;;;;;;15.58;100.00;101411.00;5044901;28;20286;-82
2022/06/20 06:50:53;;;;;;;4.17;1.60;;;;;;;15.65;100.00;101420.94;5039351;28;21034;-81
2022/06/20 06:53:33;;;;;;;6.07;2.10;;;;;;;15.60;100.00;101410.81;5012403;28;20485;-82
2022/06/20 06:56:15;;;;;;;4.87;1.80;;;;;;;15.13;100.00;101348.09;5035289;28;20434;-79
2022/06/20 06:58:56;;;;;;;7.83;2.10;;;;;;;14.80;100.00;101259.13;5052053;28;20460;-86
2022/06/20 07:01:31;;;;;;;5.67;1.83;;;;;;;15.89;100.00;101449.97;5036864;28;20748;-79
2022/06/20 07:04:02;;;;;;;6.27;2.17;;;;;;;15.84;100.00;101428.13;5041832;28;20465;-82
2022/06/20 07:06:33;;;;;;;3.20;1.50;;;;;;;15.10;100.00;101321.50;5039822;28;21163;-79
2022/06/20 07:09:15;;;;;;;3.03;1.50;;;;;;;15.61;100.00;101428.69;5037630;28;20947;-83
2022/06/20 07:11:51;;;;;;;2.80;1.50;;;;;;;15.59;100.00;101410.00;5039282;28;20431;-82
2022/06/20 07:14:21;;;;;;;2.80;1.40;;;;;;;15.89;100.00;101427.50;5036903;28;20539;-85
2022/06/20 07:17:07;;;;;;;7.27;1.83;;;;;;;16.01;100.00;101434.66;5041677;28;21047;-74
2022/06/20 07:19:37;;;;;;;4.77;1.80;;;;;;;15.73;100.00;101412.63;5040634;28;20824;-77
2022/06/20 07:22:03;;;;;;;4.47;1.70;;;;;;;15.86;100.00;101428.75;5036514;28;20445;-81
2022/06/20 07:24:32;;;;;;;4.90;2.20;;;;;;;15.92;100.00;101433.28;5036227;28;20465;-80
2022/06/20 07:27:12;;;;;;;7.73;1.97;;;;;;;15.89;100.00;101425.63;5041612;28;20208;-77
2022/06/20 07:29:47;;;;;;;3.50;1.50;;;;;;;15.42;100.00;101371.00;5038384;28;20452;-81
2022/06/20 07:32:18;;;;;;;4.83;1.60;;;;;;;15.76;100.00;101437.34;5037932;28;20433;-85
2022/06/20 07:34:57;;;;;;;4.60;1.43;;;;;;;15.90;100.00;101453.50;5042560;28;20491;-78
2022/06/20 07:37:28;;;;;;;4.40;1.73;;;;;;;15.84;100.00;101430.03;5040658;28;20433;-87
2022/06/20 07:40:04;;;;;;;2.93;1.00;;;;;;;15.92;100.00;101427.88;5042796;28;21074;-87
2022/06/20 07:42:45;;;;;;;5.60;1.70;;;;;;;15.88;100.00;101429.38;5045433;28;20444;-80
2022/06/20 07:45:19;;;;;;;4.27;1.40;;;;;;;16.03;100.00;101443.41;5040311;28;20429;-78
2022/06/20 07:47:51;;;;;;;3.30;1.27;;;;;;;15.95;100.00;101434.72;5042177;28;20855;-82
2022/06/20 07:50:29;;;;;;;2.40;1.13;;;;;;;15.68;100.00;101405.19;5042048;28;20522;-79
2022/06/20 07:53:04;;;;;;;4.50;1.83;;;;;;;16.15;100.00;101438.09;5040537;28;20458;-81
2022/06/20 07:55:32;;;;;;;2.60;1.63;;;;;;;14.69;100.00;101196.69;5042304;28;20507;-83
2022/06/20 07:58:21;;;;;;;3.87;1.40;;;;;;;16.02;100.00;101455.25;5039636;28;20638;-81
2022/06/20 08:00:51;;;;;;;2.10;1.00;;;;;;;16.16;100.00;101445.16;5039617;28;20534;-80
2022/06/20 08:03:47;;;;;;;3.37;1.13;;;;;;;16.25;100.00;101437.59;5032902;28;20957;-80
2022/06/20 08:06:38;;;;;;;3.70;1.40;;;;;;;16.07;100.00;101448.38;5036915;28;20489;-82
2022/06/20 08:09:29;;;;;;;4.37;1.30;;;;;;;16.11;100.00;101442.28;5040280;28;20438;-79
2022/06/20 08:12:19;;;;;;;5.07;1.50;;;;;;;16.03;100.00;101446.09;5039475;28;20536;-78
2022/06/20 08:14:59;;;;;;;6.13;1.70;;;;;;;15.97;100.00;101444.28;5043143;28;20453;-80
2022/06/20 08:17:28;;;;;;;3.67;1.90;;;;;;;15.92;100.00;101448.69;5040492;28;20436;-79
2022/06/20 08:19:55;;;;;;;6.60;1.60;;;;;;;15.78;100.00;101423.63;5044400;28;20430;-81
2022/06/20 08:22:27;;;;;;;6.23;1.50;;;;;;;15.45;100.00;101384.09;5035423;28;20446;-81
2022/06/20 08:25:01;;;;;;;3.93;1.70;;;;;;;15.79;100.00;101439.63;5042998;28;20466;-77
2022/06/20 08:27:45;;;;;;;2.73;1.27;;;;;;;15.33;100.00;101366.88;5035515;28;20477;-79
2022/06/20 08:30:19;;;;;;;3.07;1.50;;;;;;;15.96;100.00;101453.44;5042545;28;20555;-77
2022/06/20 08:33:07;;;;;;;3.00;1.40;;;;;;;16.13;100.00;101455.59;5041802;28;20448;-79
2022/06/20 08:36:01;;;;;;;7.80;2.57;;;;;;;15.86;100.00;101446.88;5038290;28;20446;-76
2022/06/20 08:38:38;;;;;;;3.77;1.57;;;;;;;15.82;100.00;101465.38;5034834;28;20446;-78
2022/06/20 08:41:12;;;;;;;6.30;1.60;;;;;;;15.76;100.00;101468.97;5035918;28;20446;-80
2022/06/20 08:44:05;;;;;;;4.60;1.70;;;;;;;15.74;100.00;101468.38;5039092;28;20527;-78
2022/06/20 08:47:06;;;;;;;3.00;1.30;;;;;;;15.85;100.00;101472.25;5039317;28;20458;-79
2022/06/20 08:49:50;;;;;;;4.53;1.30;;;;;;;16.10;100.00;101469.59;5042887;28;20433;-82
2022/06/20 08:52:37;;;;;;;4.67;1.00;;;;;;;16.17;100.00;101468.50;5032302;28;20449;-82
2022/06/20 08:56:00;;;;;;;5.20;1.43;;;;;;;16.13;100.00;101456.44;5035294;28;20458;-83
2022/06/20 08:58:37;;;;;;;1.70;1.00;;;;;;;16.34;100.00;101484.16;4955301;28;20943;-75
2022/06/20 09:01:27;;;;;;;2.13;1.13;;;;;;;16.35;100.00;101477.72;4953397;28;20452;-78
2022/06/20 09:03:52;;;;;;;2.50;0.93;;;;;;;16.34;100.00;101476.84;5021769;28;21459;-77
2022/06/20 09:06:44;;;;;;;3.90;0.90;;;;;;;16.20;100.00;101421.19;5039650;28;20473;-79
2022/06/20 09:09:34;;;;;;;2.10;0.97;;;;;;;16.43;100.00;101472.84;5038676;28;22362;-84
2022/06/20 09:12:15;;;;;;;2.50;1.07;;;;;;;15.83;100.00;101369.69;5042550;28;20469;-77
2022/06/20 09:15:35;;;;;;;2.80;1.10;;;;;;;16.11;100.00;101404.41;5042802;28;20461;-79
2022/06/20 09:18:22;;;;;;;4.23;1.30;;;;;;;16.56;100.00;101476.47;4987366;28;20441;-78
2022/06/20 09:20:58;;;;;;;3.03;1.30;;;;;;;16.23;100.00;101464.06;5042731;28;20444;-79
2022/06/20 09:24:05;;;;;;;4.50;1.60;;;;;;;16.38;100.00;101461.84;5039864;28;20473;-78
2022/06/20 09:27:01;;;;;;;5.07;2.03;;;;;;;16.63;100.00;101464.50;5037385;28;20473;-77
2022/06/20 09:29:32;;;;;;;2.40;1.27;;;;;;;16.74;100.00;101468.38;5036234;28;20800;-86
2022/06/20 09:32:49;;;;;;;3.20;1.20;;;;;;;16.76;100.00;101482.56;5043075;28;20442;-84
2022/06/20 09:35:20;;;;;;;3.70;1.37;;;;;;;16.70;100.00;101469.88;5007080;28;20441;-81
2022/06/20 09:38:00;;;;;;;7.10;1.40;;;;;;;16.53;100.00;101482.34;5050231;28;20435;-78
2022/06/20 09:40:40;;;;;;;3.37;1.23;;;;;;;16.08;100.00;101431.06;5040564;28;20472;-82
2022/06/20 09:43:42;;;;;;;3.80;1.50;;;;;;;16.47;100.00;101479.47;5044353;28;20492;-82
2022/06/20 09:46:19;;;;;;;3.07;1.17;;;;;;;16.68;100.00;101474.69;5043511;28;20475;-83
2022/06/20 09:48:56;;;;;;;2.63;1.30;;;;;;;16.35;100.00;101431.69;5039913;28;20452;-82
2022/06/20 09:51:39;;;;;;;2.47;1.07;;;;;;;16.52;100.00;101431.91;5044851;28;20441;-81
2022/06/20 09:54:33;;;;;;;3.07;1.10;;;;;;;16.22;100.00;101382.03;5044107;28;20466;-80
2022/06/20 09:57:27;;;;;;;3.20;1.90;;;;;;;16.57;100.00;101484.34;5035977;28;20525;-84
2022/06/20 10:00:19;;;;;;;2.77;1.40;;;;;;;16.39;100.00;101485.16;5025971;28;20497;-78
2022/06/20 10:03:12;;;;;;;4.57;1.30;;;;;;;16.60;100.00;101477.66;5039933;28;20434;-74
2022/06/20 10:05:49;;;;;;;2.80;1.37;;;;;;;16.81;100.00;101473.75;5034651;28;20505;-73
2022/06/20 10:08:52;;;;;;;2.10;1.00;;;;;;;16.60;100.00;101483.91;5038705;28;20513;-74
2022/06/20 10:11:54;;;;;;;3.97;1.77;;;;;;;16.22;100.00;101427.22;5045614;28;20434;-76
2022/06/20 10:14:59;;;;;;;3.50;1.53;;;;;;;16.58;100.00;101490.63;5054657;23;21019;-68
2022/06/20 10:17:49;;;;;;;4.53;1.30;;;;;;;16.31;100.00;101495.44;4924884;28;20450;-67
2022/06/20 10:20:28;;;;;;;5.03;1.43;;;;;;;16.39;100.00;101498.69;4923872;28;20863;-67
2022/06/20 10:23:09;;;;;;;4.10;1.33;;;;;;;16.54;100.00;101494.81;4925865;28;20944;-68
2022/06/20 10:25:41;;;;;;;1.80;1.00;;;;;;;16.72;100.00;101490.28;4938743;28;20810;-68
2022/06/20 10:28:12;;;;;;;3.00;1.10;;;;;;;16.83;100.00;101483.31;4935500;28;20466;-68
2022/06/20 10:31:09;;;;;;;2.67;1.20;;;;;;;16.81;100.00;101496.25;4943517;28;20445;-67
2022/06/20 10:34:04;;;;;;;3.43;1.33;;;;;;;16.75;100.00;101497.13;4942769;28;20450;-68
2022/06/20 10:36:47;;;;;;;2.60;1.10;;;;;;;16.83;100.00;101491.44;4958169;28;20490;-68
2022/06/20 10:39:24;;;;;;;1.93;1.27;;;;;;;16.93;100.00;101494.47;4946570;28;20789;-68
2022/06/20 10:42:12;;;;;;;2.47;1.20;;;;;;;16.81;100.00;101506.28;4944670;28;21214;-68
2022/06/20 10:44:58;;;;;;;1.80;1.10;;;;;;;16.97;100.00;101508.38;4942055;28;20459;-68
2022/06/20 10:47:40;;;;;;;1.43;0.90;;;;;;;16.99;100.00;101497.31;4944788;28;20462;-68
2022/06/20 10:50:12;;;;;;;2.60;1.40;;;;;;;17.01;100.00;101500.63;4944508;28;20464;-68
2022/06/20 10:52:46;;;;;;;2.30;1.10;;;;;;;17.26;100.00;101512.22;4943146;28;20449;-68
2022/06/20 10:55:33;;;;;;;5.90;1.63;;;;;;;17.00;100.00;101515.22;4943619;28;20469;-68
2022/06/20 10:58:20;;;;;;;3.70;1.53;;;;;;;17.01;100.00;101523.16;4941678;28;20508;-67
2022/06/20 11:01:03;;;;;;;3.37;1.10;;;;;;;17.16;100.00;101520.06;4943154;28;20787;-68
2022/06/20 11:04:14;;;;;;;3.30;1.20;;;;;;;17.09;100.00;101522.00;4941254;28;20533;-68
2022/06/20 11:07:07;;;;;;;2.97;1.27;;;;;;;16.98;100.00;101522.75;4924272;28;20521;-67
2022/06/20 11:09:54;;;;;;;3.20;1.33;;;;;;;16.85;100.00;101529.97;4931703;28;20807;-68
2022/06/20 11:12:25;;;;;;;2.53;1.10;;;;;;;17.00;100.00;101526.06;4928735;28;20504;-67
2022/06/20 11:15:02;;;;;;;6.00;1.67;;;;;;;16.93;100.00;101520.72;4939858;28;21000;-67
2022/06/20 11:17:34;;;;;;;1.90;1.00;;;;;;;16.95;100.00;101529.44;4940523;28;20446;-67
2022/06/20 11:20:21;;;;;;;4.70;1.33;;;;;;;16.80;100.00;101518.97;4945469;28;20446;-66
2022/06/20 11:23:11;;;;;;;3.20;1.10;;;;;;;16.48;100.00;101442.38;4940516;28;20450;-67
2022/06/20 11:26:32;;;;;;;2.40;1.30;;;;;;;17.04;100.00;101527.25;4971330;28;20470;-66
2022/06/20 11:29:13;;;;;;;2.70;1.50;;;;;;;16.97;100.00;101532.75;4943437;28;20427;-67
2022/06/20 11:31:44;;;;;;;5.33;2.07;;;;;;;16.87;100.00;101537.88;4937829;28;20444;-66
2022/06/20 11:34:46;;;;;;;5.20;1.70;;;;;;;16.72;100.00;101528.19;4936341;28;20434;-67
2022/06/20 11:37:22;;;;;;;3.97;1.60;;;;;;;17.18;100.00;101539.63;4943963;29;20497;-67
2022/06/20 11:40:00;;;;;;;2.73;1.23;;;;;;;17.20;100.00;101544.84;4940435;28;20521;-67
2022/06/20 11:42:52;;;;;;;2.80;1.30;;;;;;;17.52;100.00;101537.34;4936383;28;20487;-67
2022/06/20 11:45:43;;;;;;;4.53;1.80;;;;;;;17.36;100.00;101545.06;4936104;28;21184;-68
2022/06/20 11:48:30;;;;;;;8.97;1.27;;;;;;;16.77;100.00;101522.13;4937228;28;20451;-67
2022/06/20 11:51:15;;;;;;;2.63;1.30;;;;;;;17.07;100.00;101549.34;4939153;28;20446;-67
2022/06/20 11:53:59;;;;;;;4.63;1.20;;;;;;;17.04;100.00;101559.78;4934783;28;20473;-67
2022/06/20 11:56:33;;;;;;;3.40;1.73;;;;;;;17.16;100.00;101558.03;4932442;28;25324;-68
2022/06/20 11:59:17;;;;;;;2.13;1.20;;;;;;;16.91;100.00;101549.94;4940256;28;20435;-67
2022/06/20 12:02:10;;;;;;;2.60;1.20;;;;;;;17.25;100.00;101556.66;4939785;28;20512;-67
2022/06/20 12:04:44;;;;;;;1.10;0.97;;;;;;;17.32;100.00;101551.16;4937394;28;20466;-68
2022/06/20 12:07:20;;;;;;;2.03;0.93;;;;;;;16.84;100.00;101514.78;4929895;28;20474;-67
2022/06/20 12:09:53;;;;;;;4.77;1.10;;;;;;;17.06;100.00;101549.56;4941357;28;21052;-67
2022/06/20 12:12:22;;;;;;;2.80;1.10;;;;;;;17.20;100.00;101559.22;4938167;28;20439;-67
2022/06/20 12:15:09;;;;;;;3.03;0.90;;;;;;;17.13;100.00;101562.00;4941518;28;20482;-67
2022/06/20 12:18:00;;;;;;;3.17;1.33;;;;;;;17.09;100.00;101558.06;4938316;28;20454;-66